sensor_id;sensor_type;location;lat;lon;timestamp;P1;durP1;ratioP1;P2;durP2;ratioP2
13872;SDS011;7006;51.494;11.964;2024-03-02T00:01:09;66.33;;;40.70;;
13872;SDS011;7006;51.494;11.964;2024-03-02T00:03:37;64.30;;;41.70;;
13872;SDS011;7006;51.494;11.964;2024-03-02T00:06:06;68.37;;;42.10;;
13872;SDS011;7006;51.494;11.964;2024-03-02T00:08:34;70.57;;;43.03;;
13872;SDS011;7006;51.494;11.964;2024-03-02T00:11:03;70.00;;;41.97;;
13872;SDS011;7006;51.494;11.964;2024-03-02T00:13:31;68.83;;;40.77;;
13872;SDS011;7006;51.494;11.964;2024-03-02T00:16:03;70.00;;;43.63;;
13872;SDS011;7006;51.494;11.964;2024-03-02T00:18:34;74.53;;;40.67;;
13872;SDS011;7006;51.494;11.964;2024-03-02T00:21:03;66.63;;;40.80;;
13872;SDS011;7006;51.494;11.964;2024-03-02T00:23:31;72.23;;;40.77;;
13872;SDS011;7006;51.494;11.964;2024-03-02T00:26:01;64.77;;;41.10;;
13872;SDS011;7006;51.494;11.964;2024-03-02T00:28:29;62.23;;;39.30;;
13872;SDS011;7006;51.494;11.964;2024-03-02T00:31:04;66.33;;;38.93;;
13872;SDS011;7006;51.494;11.964;2024-03-02T00:33:31;65.20;;;39.53;;
13872;SDS011;7006;51.494;11.964;2024-03-02T00:36:01;65.40;;;38.33;;
13872;SDS011;7006;51.494;11.964;2024-03-02T00:38:29;68.03;;;39.37;;
13872;SDS011;7006;51.494;11.964;2024-03-02T00:40:58;62.70;;;39.47;;
13872;SDS011;7006;51.494;11.964;2024-03-02T00:43:43;63.83;;;40.10;;
13872;SDS011;7006;51.494;11.964;2024-03-02T00:46:18;65.57;;;39.10;;
13872;SDS011;7006;51.494;11.964;2024-03-02T00:48:53;66.30;;;39.80;;
13872;SDS011;7006;51.494;11.964;2024-03-02T00:51:24;75.03;;;42.47;;
13872;SDS011;7006;51.494;11.964;2024-03-02T00:53:53;65.37;;;38.70;;
13872;SDS011;7006;51.494;11.964;2024-03-02T00:56:23;66.37;;;40.07;;
13872;SDS011;7006;51.494;11.964;2024-03-02T00:58:52;66.70;;;39.80;;
13872;SDS011;7006;51.494;11.964;2024-03-02T01:01:23;64.17;;;40.93;;
13872;SDS011;7006;51.494;11.964;2024-03-02T01:03:52;61.00;;;38.23;;
13872;SDS011;7006;51.494;11.964;2024-03-02T01:06:20;63.30;;;38.70;;
13872;SDS011;7006;51.494;11.964;2024-03-02T01:08:49;62.30;;;38.97;;
13872;SDS011;7006;51.494;11.964;2024-03-02T01:11:17;68.97;;;40.10;;
13872;SDS011;7006;51.494;11.964;2024-03-02T01:13:46;60.30;;;37.40;;
13872;SDS011;7006;51.494;11.964;2024-03-02T01:16:15;56.97;;;36.50;;
13872;SDS011;7006;51.494;11.964;2024-03-02T01:18:46;62.17;;;38.20;;
13872;SDS011;7006;51.494;11.964;2024-03-02T01:21:14;63.00;;;38.47;;
13872;SDS011;7006;51.494;11.964;2024-03-02T01:23:42;68.87;;;39.53;;
13872;SDS011;7006;51.494;11.964;2024-03-02T01:26:11;70.93;;;40.53;;
13872;SDS011;7006;51.494;11.964;2024-03-02T01:28:39;78.00;;;40.77;;
13872;SDS011;7006;51.494;11.964;2024-03-02T01:31:07;71.03;;;41.53;;
13872;SDS011;7006;51.494;11.964;2024-03-02T01:33:36;75.17;;;42.20;;
13872;SDS011;7006;51.494;11.964;2024-03-02T01:36:07;72.50;;;42.13;;
13872;SDS011;7006;51.494;11.964;2024-03-02T01:38:35;66.83;;;39.80;;
13872;SDS011;7006;51.494;11.964;2024-03-02T01:41:03;67.77;;;40.60;;
13872;SDS011;7006;51.494;11.964;2024-03-02T01:43:33;66.97;;;40.00;;
13872;SDS011;7006;51.494;11.964;2024-03-02T01:46:01;62.47;;;39.77;;
13872;SDS011;7006;51.494;11.964;2024-03-02T01:48:29;66.70;;;40.20;;
13872;SDS011;7006;51.494;11.964;2024-03-02T01:50:57;67.73;;;40.60;;
13872;SDS011;7006;51.494;11.964;2024-03-02T01:53:29;66.03;;;39.43;;
13872;SDS011;7006;51.494;11.964;2024-03-02T01:55:57;67.70;;;40.80;;
13872;SDS011;7006;51.494;11.964;2024-03-02T01:58:26;59.80;;;37.60;;
13872;SDS011;7006;51.494;11.964;2024-03-02T02:00:54;70.47;;;41.53;;
13872;SDS011;7006;51.494;11.964;2024-03-02T02:03:23;73.90;;;41.90;;
13872;SDS011;7006;51.494;11.964;2024-03-02T02:05:51;60.97;;;38.47;;
13872;SDS011;7006;51.494;11.964;2024-03-02T02:08:19;70.53;;;41.90;;
13872;SDS011;7006;51.494;11.964;2024-03-02T02:10:50;65.87;;;41.90;;
13872;SDS011;7006;51.494;11.964;2024-03-02T02:13:18;65.63;;;40.30;;
13872;SDS011;7006;51.494;11.964;2024-03-02T02:15:46;67.03;;;39.83;;
13872;SDS011;7006;51.494;11.964;2024-03-02T02:18:15;65.33;;;39.43;;
13872;SDS011;7006;51.494;11.964;2024-03-02T02:20:43;69.33;;;40.43;;
13872;SDS011;7006;51.494;11.964;2024-03-02T02:23:14;67.90;;;39.70;;
13872;SDS011;7006;51.494;11.964;2024-03-02T02:25:43;66.83;;;41.07;;
13872;SDS011;7006;51.494;11.964;2024-03-02T02:28:11;68.20;;;40.73;;
13872;SDS011;7006;51.494;11.964;2024-03-02T02:30:39;72.47;;;41.10;;
13872;SDS011;7006;51.494;11.964;2024-03-02T02:33:08;70.30;;;41.27;;
13872;SDS011;7006;51.494;11.964;2024-03-02T02:35:36;70.67;;;40.50;;
13872;SDS011;7006;51.494;11.964;2024-03-02T02:38:04;62.23;;;39.57;;
13872;SDS011;7006;51.494;11.964;2024-03-02T02:40:37;63.80;;;39.60;;
13872;SDS011;7006;51.494;11.964;2024-03-02T02:43:05;64.40;;;38.60;;
13872;SDS011;7006;51.494;11.964;2024-03-02T02:45:33;61.40;;;40.10;;
13872;SDS011;7006;51.494;11.964;2024-03-02T02:48:01;71.30;;;40.00;;
13872;SDS011;7006;51.494;11.964;2024-03-02T02:50:30;65.80;;;38.87;;
13872;SDS011;7006;51.494;11.964;2024-03-02T02:52:58;66.10;;;38.60;;
13872;SDS011;7006;51.494;11.964;2024-03-02T02:55:26;62.77;;;39.00;;
13872;SDS011;7006;51.494;11.964;2024-03-02T02:57:57;60.13;;;38.50;;
13872;SDS011;7006;51.494;11.964;2024-03-02T03:00:25;63.47;;;40.00;;
13872;SDS011;7006;51.494;11.964;2024-03-02T03:02:53;62.57;;;38.23;;
13872;SDS011;7006;51.494;11.964;2024-03-02T03:05:22;62.30;;;38.17;;
13872;SDS011;7006;51.494;11.964;2024-03-02T03:07:50;65.90;;;39.03;;
13872;SDS011;7006;51.494;11.964;2024-03-02T03:10:18;62.60;;;40.30;;
13872;SDS011;7006;51.494;11.964;2024-03-02T03:12:48;64.20;;;38.20;;
13872;SDS011;7006;51.494;11.964;2024-03-02T03:15:19;60.60;;;38.03;;
13872;SDS011;7006;51.494;11.964;2024-03-02T03:17:47;65.63;;;38.13;;
13872;SDS011;7006;51.494;11.964;2024-03-02T03:20:16;60.87;;;38.23;;
13872;SDS011;7006;51.494;11.964;2024-03-02T03:22:46;64.77;;;39.00;;
13872;SDS011;7006;51.494;11.964;2024-03-02T03:25:14;66.13;;;37.70;;
13872;SDS011;7006;51.494;11.964;2024-03-02T03:27:43;66.83;;;37.70;;
13872;SDS011;7006;51.494;11.964;2024-03-02T03:30:11;66.27;;;38.57;;
13872;SDS011;7006;51.494;11.964;2024-03-02T03:32:42;63.27;;;39.50;;
13872;SDS011;7006;51.494;11.964;2024-03-02T03:35:13;62.83;;;40.60;;
13872;SDS011;7006;51.494;11.964;2024-03-02T03:37:41;63.17;;;38.40;;
13872;SDS011;7006;51.494;11.964;2024-03-02T03:40:10;67.87;;;38.40;;
13872;SDS011;7006;51.494;11.964;2024-03-02T03:42:39;67.37;;;39.27;;
13872;SDS011;7006;51.494;11.964;2024-03-02T03:45:08;68.33;;;41.17;;
13872;SDS011;7006;51.494;11.964;2024-03-02T03:47:36;62.80;;;38.90;;
13872;SDS011;7006;51.494;11.964;2024-03-02T03:50:08;63.37;;;38.87;;
13872;SDS011;7006;51.494;11.964;2024-03-02T03:52:37;61.30;;;37.40;;
13872;SDS011;7006;51.494;11.964;2024-03-02T03:55:05;68.40;;;38.53;;
13872;SDS011;7006;51.494;11.964;2024-03-02T03:57:35;59.73;;;37.77;;
13872;SDS011;7006;51.494;11.964;2024-03-02T04:00:03;60.20;;;37.73;;
13872;SDS011;7006;51.494;11.964;2024-03-02T04:02:35;60.07;;;36.43;;
13872;SDS011;7006;51.494;11.964;2024-03-02T04:05:03;57.90;;;37.97;;
13872;SDS011;7006;51.494;11.964;2024-03-02T04:07:37;63.30;;;37.87;;
13872;SDS011;7006;51.494;11.964;2024-03-02T04:10:08;59.87;;;35.30;;
13872;SDS011;7006;51.494;11.964;2024-03-02T04:12:37;61.57;;;38.40;;
13872;SDS011;7006;51.494;11.964;2024-03-02T04:15:06;69.77;;;40.47;;
13872;SDS011;7006;51.494;11.964;2024-03-02T04:17:35;58.43;;;37.23;;
13872;SDS011;7006;51.494;11.964;2024-03-02T04:20:04;66.20;;;41.20;;
13872;SDS011;7006;51.494;11.964;2024-03-02T04:22:33;58.50;;;37.17;;
13872;SDS011;7006;51.494;11.964;2024-03-02T04:25:05;59.87;;;36.43;;
13872;SDS011;7006;51.494;11.964;2024-03-02T04:27:34;59.53;;;36.20;;
13872;SDS011;7006;51.494;11.964;2024-03-02T04:30:03;53.50;;;34.20;;
13872;SDS011;7006;51.494;11.964;2024-03-02T04:32:30;47.13;;;31.20;;
13872;SDS011;7006;51.494;11.964;2024-03-02T04:34:59;51.07;;;33.30;;
13872;SDS011;7006;51.494;11.964;2024-03-02T04:37:27;50.70;;;31.90;;
13872;SDS011;7006;51.494;11.964;2024-03-02T04:39:56;49.63;;;31.07;;
13872;SDS011;7006;51.494;11.964;2024-03-02T04:42:26;48.03;;;31.27;;
13872;SDS011;7006;51.494;11.964;2024-03-02T04:44:55;49.90;;;30.10;;
13872;SDS011;7006;51.494;11.964;2024-03-02T04:47:23;45.33;;;29.63;;
13872;SDS011;7006;51.494;11.964;2024-03-02T04:49:51;45.70;;;28.50;;
13872;SDS011;7006;51.494;11.964;2024-03-02T04:52:19;51.37;;;30.77;;
13872;SDS011;7006;51.494;11.964;2024-03-02T04:54:47;45.07;;;30.43;;
13872;SDS011;7006;51.494;11.964;2024-03-02T04:57:31;46.27;;;29.20;;
13872;SDS011;7006;51.494;11.964;2024-03-02T04:59:59;43.47;;;28.33;;
13872;SDS011;7006;51.494;11.964;2024-03-02T05:02:32;42.57;;;26.93;;
13872;SDS011;7006;51.494;11.964;2024-03-02T05:05:00;38.47;;;26.37;;
13872;SDS011;7006;51.494;11.964;2024-03-02T05:07:28;43.13;;;25.80;;
13872;SDS011;7006;51.494;11.964;2024-03-02T05:09:56;39.90;;;25.30;;
13872;SDS011;7006;51.494;11.964;2024-03-02T05:12:26;37.67;;;24.90;;
13872;SDS011;7006;51.494;11.964;2024-03-02T05:15:23;38.50;;;24.50;;
13872;SDS011;7006;51.494;11.964;2024-03-02T05:17:51;39.50;;;25.63;;
13872;SDS011;7006;51.494;11.964;2024-03-02T05:20:20;40.20;;;25.67;;
13872;SDS011;7006;51.494;11.964;2024-03-02T05:22:48;39.50;;;25.27;;
13872;SDS011;7006;51.494;11.964;2024-03-02T05:25:16;37.73;;;24.90;;
13872;SDS011;7006;51.494;11.964;2024-03-02T05:27:44;37.47;;;23.80;;
13872;SDS011;7006;51.494;11.964;2024-03-02T05:30:13;38.97;;;24.43;;
13872;SDS011;7006;51.494;11.964;2024-03-02T05:32:44;38.00;;;24.87;;
13872;SDS011;7006;51.494;11.964;2024-03-02T05:35:12;39.77;;;26.47;;
13872;SDS011;7006;51.494;11.964;2024-03-02T05:37:41;34.67;;;24.10;;
13872;SDS011;7006;51.494;11.964;2024-03-02T05:40:09;41.40;;;26.10;;
13872;SDS011;7006;51.494;11.964;2024-03-02T05:42:38;41.27;;;25.87;;
13872;SDS011;7006;51.494;11.964;2024-03-02T05:45:07;40.23;;;25.50;;
13872;SDS011;7006;51.494;11.964;2024-03-02T05:47:35;38.97;;;25.80;;
13872;SDS011;7006;51.494;11.964;2024-03-02T05:50:07;39.60;;;26.13;;
13872;SDS011;7006;51.494;11.964;2024-03-02T05:52:35;44.17;;;26.00;;
13872;SDS011;7006;51.494;11.964;2024-03-02T05:55:04;38.93;;;26.83;;
13872;SDS011;7006;51.494;11.964;2024-03-02T05:57:32;38.90;;;24.87;;
13872;SDS011;7006;51.494;11.964;2024-03-02T06:00:12;40.20;;;26.30;;
13872;SDS011;7006;51.494;11.964;2024-03-02T06:02:42;39.20;;;25.30;;
13872;SDS011;7006;51.494;11.964;2024-03-02T06:05:13;38.17;;;26.03;;
13872;SDS011;7006;51.494;11.964;2024-03-02T06:07:41;40.10;;;25.90;;
13872;SDS011;7006;51.494;11.964;2024-03-02T06:10:10;37.00;;;24.47;;
13872;SDS011;7006;51.494;11.964;2024-03-02T06:12:39;37.83;;;24.23;;
13872;SDS011;7006;51.494;11.964;2024-03-02T06:15:08;40.93;;;25.30;;
13872;SDS011;7006;51.494;11.964;2024-03-02T06:17:36;37.07;;;24.83;;
13872;SDS011;7006;51.494;11.964;2024-03-02T06:20:05;35.20;;;23.67;;
13872;SDS011;7006;51.494;11.964;2024-03-02T06:22:37;38.40;;;25.80;;
13872;SDS011;7006;51.494;11.964;2024-03-02T06:25:05;37.43;;;23.87;;
13872;SDS011;7006;51.494;11.964;2024-03-02T06:27:34;38.83;;;22.93;;
13872;SDS011;7006;51.494;11.964;2024-03-02T06:30:03;38.33;;;25.00;;
13872;SDS011;7006;51.494;11.964;2024-03-02T06:32:32;39.60;;;25.50;;
13872;SDS011;7006;51.494;11.964;2024-03-02T06:35:01;35.47;;;23.63;;
13872;SDS011;7006;51.494;11.964;2024-03-02T06:37:29;41.10;;;25.37;;
13872;SDS011;7006;51.494;11.964;2024-03-02T06:40:00;37.17;;;24.67;;
13872;SDS011;7006;51.494;11.964;2024-03-02T06:42:28;38.53;;;25.17;;
13872;SDS011;7006;51.494;11.964;2024-03-02T06:44:58;36.40;;;25.07;;
13872;SDS011;7006;51.494;11.964;2024-03-02T06:47:26;36.10;;;24.27;;
13872;SDS011;7006;51.494;11.964;2024-03-02T06:49:54;35.03;;;24.23;;
13872;SDS011;7006;51.494;11.964;2024-03-02T06:52:23;37.70;;;24.90;;
13872;SDS011;7006;51.494;11.964;2024-03-02T06:54:51;37.87;;;24.00;;
13872;SDS011;7006;51.494;11.964;2024-03-02T06:57:22;38.13;;;23.80;;
13872;SDS011;7006;51.494;11.964;2024-03-02T06:59:50;39.60;;;26.57;;
13872;SDS011;7006;51.494;11.964;2024-03-02T07:02:20;40.93;;;26.40;;
13872;SDS011;7006;51.494;11.964;2024-03-02T07:04:48;43.43;;;27.07;;
13872;SDS011;7006;51.494;11.964;2024-03-02T07:07:16;41.17;;;26.37;;
13872;SDS011;7006;51.494;11.964;2024-03-02T07:09:44;43.23;;;25.83;;
13872;SDS011;7006;51.494;11.964;2024-03-02T07:12:13;49.40;;;30.27;;
13872;SDS011;7006;51.494;11.964;2024-03-02T07:14:43;50.70;;;31.90;;
13872;SDS011;7006;51.494;11.964;2024-03-02T07:17:24;47.70;;;30.10;;
13872;SDS011;7006;51.494;11.964;2024-03-02T07:19:52;50.80;;;31.33;;
13872;SDS011;7006;51.494;11.964;2024-03-02T07:22:20;47.80;;;29.80;;
13872;SDS011;7006;51.494;11.964;2024-03-02T07:24:49;48.00;;;29.73;;
13872;SDS011;7006;51.494;11.964;2024-03-02T07:27:17;42.73;;;27.30;;
13872;SDS011;7006;51.494;11.964;2024-03-02T07:29:48;44.63;;;27.93;;
13872;SDS011;7006;51.494;11.964;2024-03-02T07:32:16;42.60;;;26.70;;
13872;SDS011;7006;51.494;11.964;2024-03-02T07:34:44;43.23;;;26.93;;
13872;SDS011;7006;51.494;11.964;2024-03-02T07:37:13;42.07;;;27.33;;
13872;SDS011;7006;51.494;11.964;2024-03-02T07:39:41;39.37;;;25.57;;
13872;SDS011;7006;51.494;11.964;2024-03-02T07:42:09;41.97;;;26.17;;
13872;SDS011;7006;51.494;11.964;2024-03-02T07:44:37;40.77;;;26.37;;
13872;SDS011;7006;51.494;11.964;2024-03-02T07:47:08;43.80;;;26.77;;
13872;SDS011;7006;51.494;11.964;2024-03-02T07:49:36;42.47;;;27.33;;
13872;SDS011;7006;51.494;11.964;2024-03-02T07:52:05;39.10;;;26.20;;
13872;SDS011;7006;51.494;11.964;2024-03-02T07:54:33;43.90;;;26.77;;
13872;SDS011;7006;51.494;11.964;2024-03-02T07:57:01;42.47;;;27.80;;
13872;SDS011;7006;51.494;11.964;2024-03-02T07:59:30;44.27;;;27.90;;
13872;SDS011;7006;51.494;11.964;2024-03-02T08:01:58;38.53;;;24.83;;
13872;SDS011;7006;51.494;11.964;2024-03-02T08:04:29;46.47;;;28.37;;
13872;SDS011;7006;51.494;11.964;2024-03-02T08:06:57;47.87;;;29.50;;
13872;SDS011;7006;51.494;11.964;2024-03-02T08:09:25;48.57;;;29.17;;
13872;SDS011;7006;51.494;11.964;2024-03-02T08:11:53;44.83;;;27.17;;
13872;SDS011;7006;51.494;11.964;2024-03-02T08:14:22;47.37;;;28.80;;
13872;SDS011;7006;51.494;11.964;2024-03-02T08:16:50;48.30;;;29.20;;
13872;SDS011;7006;51.494;11.964;2024-03-02T08:19:18;42.80;;;25.63;;
13872;SDS011;7006;51.494;11.964;2024-03-02T08:21:49;47.87;;;29.17;;
13872;SDS011;7006;51.494;11.964;2024-03-02T08:24:17;42.10;;;27.37;;
13872;SDS011;7006;51.494;11.964;2024-03-02T08:26:45;44.43;;;28.63;;
13872;SDS011;7006;51.494;11.964;2024-03-02T08:29:13;43.77;;;27.90;;
13872;SDS011;7006;51.494;11.964;2024-03-02T08:31:42;41.43;;;25.80;;
13872;SDS011;7006;51.494;11.964;2024-03-02T08:34:10;38.77;;;25.67;;
13872;SDS011;7006;51.494;11.964;2024-03-02T08:36:38;42.40;;;25.50;;
13872;SDS011;7006;51.494;11.964;2024-03-02T08:39:10;44.57;;;26.30;;
13872;SDS011;7006;51.494;11.964;2024-03-02T08:41:40;44.33;;;26.30;;
13872;SDS011;7006;51.494;11.964;2024-03-02T08:44:08;41.37;;;27.30;;
13872;SDS011;7006;51.494;11.964;2024-03-02T08:46:37;48.57;;;27.33;;
13872;SDS011;7006;51.494;11.964;2024-03-02T08:49:05;40.10;;;27.20;;
13872;SDS011;7006;51.494;11.964;2024-03-02T08:51:33;37.77;;;26.30;;
13872;SDS011;7006;51.494;11.964;2024-03-02T08:54:02;43.40;;;26.87;;
13872;SDS011;7006;51.494;11.964;2024-03-02T08:56:33;42.93;;;25.83;;
13872;SDS011;7006;51.494;11.964;2024-03-02T08:59:01;42.70;;;25.67;;
13872;SDS011;7006;51.494;11.964;2024-03-02T09:01:29;42.10;;;26.90;;
13872;SDS011;7006;51.494;11.964;2024-03-02T09:03:57;43.37;;;27.07;;
13872;SDS011;7006;51.494;11.964;2024-03-02T09:06:26;45.93;;;27.80;;
13872;SDS011;7006;51.494;11.964;2024-03-02T09:08:54;45.30;;;26.90;;
13872;SDS011;7006;51.494;11.964;2024-03-02T09:11:22;40.70;;;27.50;;
13872;SDS011;7006;51.494;11.964;2024-03-02T09:13:53;39.40;;;26.33;;
13872;SDS011;7006;51.494;11.964;2024-03-02T09:16:22;39.53;;;24.70;;
13872;SDS011;7006;51.494;11.964;2024-03-02T09:18:55;37.50;;;24.07;;
13872;SDS011;7006;51.494;11.964;2024-03-02T09:21:23;38.90;;;23.97;;
13872;SDS011;7006;51.494;11.964;2024-03-02T09:23:53;37.50;;;25.37;;
13872;SDS011;7006;51.494;11.964;2024-03-02T09:26:21;41.33;;;26.37;;
13872;SDS011;7006;51.494;11.964;2024-03-02T09:28:49;36.03;;;24.97;;
13872;SDS011;7006;51.494;11.964;2024-03-02T09:31:20;36.70;;;23.00;;
13872;SDS011;7006;51.494;11.964;2024-03-02T09:33:48;37.20;;;23.43;;
13872;SDS011;7006;51.494;11.964;2024-03-02T09:36:17;43.30;;;25.90;;
13872;SDS011;7006;51.494;11.964;2024-03-02T09:38:45;39.60;;;23.47;;
13872;SDS011;7006;51.494;11.964;2024-03-02T09:41:14;38.17;;;25.57;;
13872;SDS011;7006;51.494;11.964;2024-03-02T09:43:42;38.30;;;23.00;;
13872;SDS011;7006;51.494;11.964;2024-03-02T09:46:13;35.97;;;22.80;;
13872;SDS011;7006;51.494;11.964;2024-03-02T09:48:43;37.47;;;23.73;;
13872;SDS011;7006;51.494;11.964;2024-03-02T09:51:11;37.43;;;22.50;;
13872;SDS011;7006;51.494;11.964;2024-03-02T09:53:40;33.87;;;21.80;;
13872;SDS011;7006;51.494;11.964;2024-03-02T09:56:08;36.43;;;22.73;;
13872;SDS011;7006;51.494;11.964;2024-03-02T09:58:36;34.47;;;22.43;;
13872;SDS011;7006;51.494;11.964;2024-03-02T10:01:06;33.77;;;22.23;;
13872;SDS011;7006;51.494;11.964;2024-03-02T10:03:37;35.40;;;22.33;;
13872;SDS011;7006;51.494;11.964;2024-03-02T10:06:18;31.07;;;21.00;;
13872;SDS011;7006;51.494;11.964;2024-03-02T10:08:46;37.27;;;22.07;;
13872;SDS011;7006;51.494;11.964;2024-03-02T10:11:25;31.90;;;21.57;;
13872;SDS011;7006;51.494;11.964;2024-03-02T10:14:05;31.33;;;20.73;;
13872;SDS011;7006;51.494;11.964;2024-03-02T10:16:35;31.00;;;19.70;;
13872;SDS011;7006;51.494;11.964;2024-03-02T10:19:19;32.13;;;20.60;;
13872;SDS011;7006;51.494;11.964;2024-03-02T10:21:48;33.20;;;20.43;;
13872;SDS011;7006;51.494;11.964;2024-03-02T10:24:18;28.40;;;19.70;;
13872;SDS011;7006;51.494;11.964;2024-03-02T10:26:48;31.27;;;21.23;;
13872;SDS011;7006;51.494;11.964;2024-03-02T10:29:17;31.03;;;20.03;;
13872;SDS011;7006;51.494;11.964;2024-03-02T10:31:46;28.70;;;19.80;;
13872;SDS011;7006;51.494;11.964;2024-03-02T10:34:14;31.00;;;21.20;;
13872;SDS011;7006;51.494;11.964;2024-03-02T10:36:45;28.00;;;20.73;;
13872;SDS011;7006;51.494;11.964;2024-03-02T10:39:14;29.70;;;19.73;;
13872;SDS011;7006;51.494;11.964;2024-03-02T10:41:42;28.63;;;20.10;;
13872;SDS011;7006;51.494;11.964;2024-03-02T10:44:11;26.30;;;18.90;;
13872;SDS011;7006;51.494;11.964;2024-03-02T10:46:39;28.03;;;19.53;;
13872;SDS011;7006;51.494;11.964;2024-03-02T10:49:07;30.70;;;20.77;;
13872;SDS011;7006;51.494;11.964;2024-03-02T10:51:36;29.03;;;20.40;;
13872;SDS011;7006;51.494;11.964;2024-03-02T10:54:07;30.87;;;19.90;;
13872;SDS011;7006;51.494;11.964;2024-03-02T10:56:38;26.70;;;18.63;;
13872;SDS011;7006;51.494;11.964;2024-03-02T10:59:12;28.40;;;19.90;;
13872;SDS011;7006;51.494;11.964;2024-03-02T11:01:45;27.87;;;18.67;;
13872;SDS011;7006;51.494;11.964;2024-03-02T11:04:15;27.03;;;19.37;;
13872;SDS011;7006;51.494;11.964;2024-03-02T11:06:46;26.97;;;17.10;;
13872;SDS011;7006;51.494;11.964;2024-03-02T11:09:19;29.83;;;19.50;;
13872;SDS011;7006;51.494;11.964;2024-03-02T11:11:49;28.83;;;19.97;;
13872;SDS011;7006;51.494;11.964;2024-03-02T11:14:24;27.57;;;18.23;;
13872;SDS011;7006;51.494;11.964;2024-03-02T11:16:52;23.83;;;16.07;;
13872;SDS011;7006;51.494;11.964;2024-03-02T11:19:21;26.20;;;17.93;;
13872;SDS011;7006;51.494;11.964;2024-03-02T11:21:49;31.03;;;19.73;;
13872;SDS011;7006;51.494;11.964;2024-03-02T11:24:33;29.43;;;19.73;;
13872;SDS011;7006;51.494;11.964;2024-03-02T11:27:02;27.40;;;18.93;;
13872;SDS011;7006;51.494;11.964;2024-03-02T11:29:43;27.53;;;19.07;;
13872;SDS011;7006;51.494;11.964;2024-03-02T11:32:15;30.43;;;19.87;;
13872;SDS011;7006;51.494;11.964;2024-03-02T11:34:46;27.50;;;19.33;;
13872;SDS011;7006;51.494;11.964;2024-03-02T11:37:16;27.47;;;19.47;;
13872;SDS011;7006;51.494;11.964;2024-03-02T11:39:48;29.00;;;18.63;;
13872;SDS011;7006;51.494;11.964;2024-03-02T11:42:17;26.70;;;18.60;;
13872;SDS011;7006;51.494;11.964;2024-03-02T11:44:46;23.97;;;17.17;;
13872;SDS011;7006;51.494;11.964;2024-03-02T11:47:16;24.67;;;18.10;;
13872;SDS011;7006;51.494;11.964;2024-03-02T11:49:45;24.77;;;17.67;;
13872;SDS011;7006;51.494;11.964;2024-03-02T11:52:14;23.80;;;17.70;;
13872;SDS011;7006;51.494;11.964;2024-03-02T11:54:43;25.47;;;18.90;;
13872;SDS011;7006;51.494;11.964;2024-03-02T11:57:19;21.80;;;17.20;;
13872;SDS011;7006;51.494;11.964;2024-03-02T11:59:49;24.90;;;17.60;;
13872;SDS011;7006;51.494;11.964;2024-03-02T12:02:18;21.93;;;16.77;;
13872;SDS011;7006;51.494;11.964;2024-03-02T12:04:48;23.47;;;16.37;;
13872;SDS011;7006;51.494;11.964;2024-03-02T12:07:20;22.03;;;15.90;;
13872;SDS011;7006;51.494;11.964;2024-03-02T12:09:49;22.07;;;16.10;;
13872;SDS011;7006;51.494;11.964;2024-03-02T12:12:30;25.37;;;17.57;;
13872;SDS011;7006;51.494;11.964;2024-03-02T12:14:58;22.43;;;16.87;;
13872;SDS011;7006;51.494;11.964;2024-03-02T12:17:28;19.80;;;15.10;;
13872;SDS011;7006;51.494;11.964;2024-03-02T12:19:57;21.13;;;14.33;;
13872;SDS011;7006;51.494;11.964;2024-03-02T12:22:28;24.33;;;14.03;;
13872;SDS011;7006;51.494;11.964;2024-03-02T12:24:57;18.97;;;13.83;;
13872;SDS011;7006;51.494;11.964;2024-03-02T12:27:26;18.63;;;14.30;;
13872;SDS011;7006;51.494;11.964;2024-03-02T12:29:57;19.50;;;14.77;;
13872;SDS011;7006;51.494;11.964;2024-03-02T12:32:25;20.13;;;14.97;;
13872;SDS011;7006;51.494;11.964;2024-03-02T12:34:53;19.47;;;14.90;;
13872;SDS011;7006;51.494;11.964;2024-03-02T12:37:22;21.00;;;15.10;;
13872;SDS011;7006;51.494;11.964;2024-03-02T12:39:52;19.83;;;12.93;;
13872;SDS011;7006;51.494;11.964;2024-03-02T12:42:20;19.77;;;15.47;;
13872;SDS011;7006;51.494;11.964;2024-03-02T12:44:51;18.50;;;14.40;;
13872;SDS011;7006;51.494;11.964;2024-03-02T12:47:22;19.40;;;15.00;;
13872;SDS011;7006;51.494;11.964;2024-03-02T12:49:50;17.20;;;13.40;;
13872;SDS011;7006;51.494;11.964;2024-03-02T12:52:19;17.40;;;14.13;;
13872;SDS011;7006;51.494;11.964;2024-03-02T12:54:48;17.07;;;12.23;;
13872;SDS011;7006;51.494;11.964;2024-03-02T12:57:17;15.50;;;12.70;;
13872;SDS011;7006;51.494;11.964;2024-03-02T12:59:46;17.50;;;13.20;;
13872;SDS011;7006;51.494;11.964;2024-03-02T13:02:16;18.17;;;13.83;;
13872;SDS011;7006;51.494;11.964;2024-03-02T13:04:51;18.33;;;13.97;;
13872;SDS011;7006;51.494;11.964;2024-03-02T13:07:20;16.90;;;13.10;;
13872;SDS011;7006;51.494;11.964;2024-03-02T13:09:50;17.83;;;12.40;;
13872;SDS011;7006;51.494;11.964;2024-03-02T13:12:20;15.10;;;12.00;;
13872;SDS011;7006;51.494;11.964;2024-03-02T13:14:49;16.60;;;12.43;;
13872;SDS011;7006;51.494;11.964;2024-03-02T13:17:18;17.07;;;11.93;;
13872;SDS011;7006;51.494;11.964;2024-03-02T13:19:53;16.00;;;12.70;;
13872;SDS011;7006;51.494;11.964;2024-03-02T13:22:21;15.03;;;12.30;;
13872;SDS011;7006;51.494;11.964;2024-03-02T13:24:50;15.60;;;11.80;;
13872;SDS011;7006;51.494;11.964;2024-03-02T13:27:19;12.20;;;9.57;;
13872;SDS011;7006;51.494;11.964;2024-03-02T13:29:47;13.73;;;10.20;;
13872;SDS011;7006;51.494;11.964;2024-03-02T13:32:16;13.53;;;10.50;;
13872;SDS011;7006;51.494;11.964;2024-03-02T13:34:48;13.77;;;10.47;;
13872;SDS011;7006;51.494;11.964;2024-03-02T13:37:19;13.90;;;10.73;;
13872;SDS011;7006;51.494;11.964;2024-03-02T13:39:47;14.87;;;10.03;;
13872;SDS011;7006;51.494;11.964;2024-03-02T13:42:16;14.90;;;10.40;;
13872;SDS011;7006;51.494;11.964;2024-03-02T13:44:44;12.27;;;9.67;;
13872;SDS011;7006;51.494;11.964;2024-03-02T13:47:14;14.93;;;11.30;;
13872;SDS011;7006;51.494;11.964;2024-03-02T13:49:43;12.80;;;9.90;;
13872;SDS011;7006;51.494;11.964;2024-03-02T13:52:12;13.60;;;10.00;;
13872;SDS011;7006;51.494;11.964;2024-03-02T13:54:44;14.05;;;8.95;;
13872;SDS011;7006;51.494;11.964;2024-03-02T13:57:13;10.30;;;8.23;;
13872;SDS011;7006;51.494;11.964;2024-03-02T13:59:44;11.17;;;8.60;;
13872;SDS011;7006;51.494;11.964;2024-03-02T14:02:13;16.30;;;9.90;;
13872;SDS011;7006;51.494;11.964;2024-03-02T14:04:41;13.60;;;11.30;;
13872;SDS011;7006;51.494;11.964;2024-03-02T14:07:09;12.70;;;10.53;;
13872;SDS011;7006;51.494;11.964;2024-03-02T14:09:38;13.60;;;10.90;;
13872;SDS011;7006;51.494;11.964;2024-03-02T14:12:10;15.90;;;11.90;;
13872;SDS011;7006;51.494;11.964;2024-03-02T14:14:38;14.63;;;10.20;;
13872;SDS011;7006;51.494;11.964;2024-03-02T14:17:06;11.77;;;9.10;;
13872;SDS011;7006;51.494;11.964;2024-03-02T14:19:39;10.93;;;8.70;;
13872;SDS011;7006;51.494;11.964;2024-03-02T14:22:08;13.70;;;8.80;;
13872;SDS011;7006;51.494;11.964;2024-03-02T14:24:38;11.20;;;8.10;;
13872;SDS011;7006;51.494;11.964;2024-03-02T14:27:10;11.57;;;8.13;;
13872;SDS011;7006;51.494;11.964;2024-03-02T14:29:39;13.70;;;9.57;;
13872;SDS011;7006;51.494;11.964;2024-03-02T14:32:07;11.00;;;8.07;;
13872;SDS011;7006;51.494;11.964;2024-03-02T14:34:36;11.73;;;7.83;;